sensor_id;sensor_type;location;lat;lon;timestamp;pressure;altitude;pressure_sealevel;temperature;humidity
13456;BME280;6800;50.940;6.940;2022-09-17T00:00:46;100492.34;;;23.14;38.28
13456;BME280;6800;50.940;6.940;2022-09-17T00:04:48;100493.22;;;23.07;38.77
13456;BME280;6800;50.940;6.940;2022-09-17T00:08:48;100496.41;;;23.02;38.78
13456;BME280;6800;50.940;6.940;2022-09-17T00:12:49;100494.41;;;22.88;39.21
13456;BME280;6800;50.940;6.940;2022-09-17T00:16:53;100489.78;;;23.29;38.56
13456;BME280;6800;50.940;6.940;2022-09-17T00:20:53;100489.69;;;23.14;38.37
13456;BME280;6800;50.940;6.940;2022-09-17T00:24:53;100487.25;;;23.44;38.40
13456;BME280;6800;50.940;6.940;2022-09-17T00:28:55;100483.66;;;22.82;39.18
13456;BME280;6800;50.940;6.940;2022-09-17T00:32:56;100495.53;;;23.10;39.29
13456;BME280;6800;50.940;6.940;2022-09-17T00:36:57;100492.34;;;23.14;39.13
13456;BME280;6800;50.940;6.940;2022-09-17T00:40:59;100481.41;;;23.01;39.37
13456;BME280;6800;50.940;6.940;2022-09-17T00:44:59;100482.75;;;22.97;39.24
13456;BME280;6800;50.940;6.940;2022-09-17T00:49:04;100486.31;;;23.20;39.23
13456;BME280;6800;50.940;6.940;2022-09-17T00:53:08;100482.72;;;23.05;39.27
13456;BME280;6800;50.940;6.940;2022-09-17T00:57:10;100488.31;;;22.80;39.62
13456;BME280;6800;50.940;6.940;2022-09-17T01:31:27;100493.59;;;23.43;39.27
13456;BME280;6800;50.940;6.940;2022-09-17T01:35:37;100503.84;;;23.15;39.25
13456;BME280;6800;50.940;6.940;2022-09-17T01:43:58;100501.50;;;23.12;39.70
13456;BME280;6800;50.940;6.940;2022-09-17T01:48:16;100507.78;;;23.35;38.90
13456;BME280;6800;50.940;6.940;2022-09-17T01:52:18;100515.44;;;22.35;41.16
13456;BME280;6800;50.940;6.940;2022-09-17T01:56:21;100510.66;;;23.17;39.35
13456;BME280;6800;50.940;6.940;2022-09-17T02:04:37;100515.69;;;23.04;39.45
13456;BME280;6800;50.940;6.940;2022-09-17T02:08:46;100521.69;;;23.06;39.68
13456;BME280;6800;50.940;6.940;2022-09-17T02:12:57;100526.34;;;23.04;39.77
13456;BME280;6800;50.940;6.940;2022-09-17T02:17:04;100526.81;;;23.08;39.35
13456;BME280;6800;50.940;6.940;2022-09-17T02:21:11;100523.69;;;23.04;39.62
13456;BME280;6800;50.940;6.940;2022-09-17T02:30:15;100522.50;;;23.07;39.56
13456;BME280;6800;50.940;6.940;2022-09-17T02:34:16;100527.59;;;22.62;40.28
13456;BME280;6800;50.940;6.940;2022-09-17T02:38:23;100528.91;;;22.74;40.54
13456;BME280;6800;50.940;6.940;2022-09-17T02:42:41;100526.69;;;22.93;40.15
13456;BME280;6800;50.940;6.940;2022-09-17T02:59:42;100527.03;;;22.98;40.51
13456;BME280;6800;50.940;6.940;2022-09-17T03:03:46;100524.03;;;22.93;40.69
13456;BME280;6800;50.940;6.940;2022-09-17T03:07:50;100531.31;;;23.15;40.49
13456;BME280;6800;50.940;6.940;2022-09-17T03:11:51;100535.59;;;23.24;40.03
13456;BME280;6800;50.940;6.940;2022-09-17T03:15:51;100532.63;;;23.19;40.14
13456;BME280;6800;50.940;6.940;2022-09-17T03:19:51;100539.41;;;23.38;39.67
13456;BME280;6800;50.940;6.940;2022-09-17T03:23:52;100531.97;;;23.56;39.37
13456;BME280;6800;50.940;6.940;2022-09-17T03:27:52;100532.47;;;23.13;39.93
13456;BME280;6800;50.940;6.940;2022-09-17T03:31:52;100536.59;;;23.23;39.40
13456;BME280;6800;50.940;6.940;2022-09-17T03:35:52;100538.41;;;23.39;39.34
13456;BME280;6800;50.940;6.940;2022-09-17T03:39:53;100539.69;;;23.51;38.90
13456;BME280;6800;50.940;6.940;2022-09-17T03:43:53;100547.41;;;23.38;39.30
13456;BME280;6800;50.940;6.940;2022-09-17T03:47:53;100544.38;;;23.49;39.13
13456;BME280;6800;50.940;6.940;2022-09-17T03:51:55;100543.06;;;23.37;39.15
13456;BME280;6800;50.940;6.940;2022-09-17T03:56:08;100539.28;;;23.23;39.54
13456;BME280;6800;50.940;6.940;2022-09-17T04:04:18;100533.66;;;23.57;38.93
13456;BME280;6800;50.940;6.940;2022-09-17T04:08:19;100549.34;;;23.52;38.82
13456;BME280;6800;50.940;6.940;2022-09-17T04:12:26;100552.97;;;23.59;38.88
13456;BME280;6800;50.940;6.940;2022-09-17T04:16:26;100546.06;;;23.42;40.05
13456;BME280;6800;50.940;6.940;2022-09-17T04:20:26;100558.06;;;23.30;40.04
13456;BME280;6800;50.940;6.940;2022-09-17T04:24:27;100560.03;;;22.73;41.13
13456;BME280;6800;50.940;6.940;2022-09-17T04:28:27;100555.41;;;23.38;40.01
13456;BME280;6800;50.940;6.940;2022-09-17T04:32:28;100558.63;;;23.01;40.26
13456;BME280;6800;50.940;6.940;2022-09-17T04:36:29;100559.75;;;23.39;39.27
13456;BME280;6800;50.940;6.940;2022-09-17T04:40:29;100562.59;;;23.21;39.84
13456;BME280;6800;50.940;6.940;2022-09-17T04:44:29;100569.47;;;23.00;40.70
13456;BME280;6800;50.940;6.940;2022-09-17T04:48:30;100564.63;;;23.11;40.07
13456;BME280;6800;50.940;6.940;2022-09-17T04:52:30;100566.63;;;22.93;40.39
13456;BME280;6800;50.940;6.940;2022-09-17T04:56:30;100581.25;;;23.05;40.04
13456;BME280;6800;50.940;6.940;2022-09-17T05:00:31;100577.28;;;23.09;40.24
13456;BME280;6800;50.940;6.940;2022-09-17T05:04:31;100580.38;;;23.29;39.79
13456;BME280;6800;50.940;6.940;2022-09-17T05:08:31;100572.91;;;23.16;40.06
13456;BME280;6800;50.940;6.940;2022-09-17T05:12:31;100579.19;;;23.32;39.71
13456;BME280;6800;50.940;6.940;2022-09-17T05:16:32;100588.25;;;23.06;40.31
13456;BME280;6800;50.940;6.940;2022-09-17T05:20:32;100580.59;;;23.03;40.28
13456;BME280;6800;50.940;6.940;2022-09-17T05:24:32;100579.16;;;23.48;39.41
13456;BME280;6800;50.940;6.940;2022-09-17T05:28:33;100586.59;;;22.97;40.12
13456;BME280;6800;50.940;6.940;2022-09-17T05:32:34;100582.88;;;23.22;39.53
13456;BME280;6800;50.940;6.940;2022-09-17T05:36:35;100589.06;;;23.39;39.19
13456;BME280;6800;50.940;6.940;2022-09-17T05:40:35;100590.41;;;23.19;39.07
13456;BME280;6800;50.940;6.940;2022-09-17T05:44:37;100602.53;;;23.38;39.00
13456;BME280;6800;50.940;6.940;2022-09-17T05:48:37;100611.16;;;23.32;39.14
13456;BME280;6800;50.940;6.940;2022-09-17T05:52:37;100615.06;;;23.05;39.67
13456;BME280;6800;50.940;6.940;2022-09-17T05:56:38;100626.53;;;23.05;39.59
13456;BME280;6800;50.940;6.940;2022-09-17T06:00:38;100624.50;;;23.40;39.19
13456;BME280;6800;50.940;6.940;2022-09-17T06:04:40;100626.31;;;23.31;39.35
13456;BME280;6800;50.940;6.940;2022-09-17T06:08:40;100621.75;;;23.64;38.82
13456;BME280;6800;50.940;6.940;2022-09-17T06:12:40;100629.06;;;23.70;38.57
13456;BME280;6800;50.940;6.940;2022-09-17T06:16:41;100636.75;;;23.65;39.19
13456;BME280;6800;50.940;6.940;2022-09-17T06:20:41;100627.91;;;24.11;38.26
13456;BME280;6800;50.940;6.940;2022-09-17T06:24:41;100626.31;;;23.86;38.60
13456;BME280;6800;50.940;6.940;2022-09-17T06:28:43;100623.50;;;24.49;37.51
13456;BME280;6800;50.940;6.940;2022-09-17T06:32:44;100620.53;;;24.89;36.67
13456;BME280;6800;50.940;6.940;2022-09-17T06:36:45;100622.88;;;25.21;35.54
13456;BME280;6800;50.940;6.940;2022-09-17T06:40:49;100625.59;;;25.50;35.13
13456;BME280;6800;50.940;6.940;2022-09-17T06:44:50;100635.47;;;24.98;36.19
13456;BME280;6800;50.940;6.940;2022-09-17T06:48:50;100629.84;;;25.60;34.73
13456;BME280;6800;50.940;6.940;2022-09-17T06:52:52;100643.00;;;25.90;34.61
13456;BME280;6800;50.940;6.940;2022-09-17T06:56:53;100650.06;;;25.25;35.12
13456;BME280;6800;50.940;6.940;2022-09-17T07:00:57;100650.41;;;25.07;35.53
13456;BME280;6800;50.940;6.940;2022-09-17T07:04:58;100661.00;;;24.78;35.29
13456;BME280;6800;50.940;6.940;2022-09-17T07:08:58;100656.22;;;24.65;35.59
13456;BME280;6800;50.940;6.940;2022-09-17T07:12:59;100656.84;;;24.53;35.45
13456;BME280;6800;50.940;6.940;2022-09-17T07:16:59;100654.00;;;25.14;35.01
13456;BME280;6800;50.940;6.940;2022-09-17T07:21:01;100651.22;;;25.08;35.17
13456;BME280;6800;50.940;6.940;2022-09-17T07:25:02;100661.25;;;25.43;34.81
13456;BME280;6800;50.940;6.940;2022-09-17T07:29:03;100660.47;;;25.20;35.19
13456;BME280;6800;50.940;6.940;2022-09-17T07:33:03;100657.66;;;25.94;33.25
13456;BME280;6800;50.940;6.940;2022-09-17T07:37:03;100661.38;;;24.44;35.47
13456;BME280;6800;50.940;6.940;2022-09-17T07:41:10;100661.16;;;24.99;35.81
13456;BME280;6800;50.940;6.940;2022-09-17T07:45:13;100654.72;;;25.60;34.48
13456;BME280;6800;50.940;6.940;2022-09-17T07:49:14;100652.13;;;25.81;34.05
13456;BME280;6800;50.940;6.940;2022-09-17T07:53:14;100656.44;;;26.68;32.95
13456;BME280;6800;50.940;6.940;2022-09-17T07:57:15;100650.69;;;27.14;31.58
13456;BME280;6800;50.940;6.940;2022-09-17T08:01:15;100653.56;;;28.88;30.03
13456;BME280;6800;50.940;6.940;2022-09-17T08:05:16;100656.34;;;28.41;29.40
13456;BME280;6800;50.940;6.940;2022-09-17T08:09:16;100652.22;;;28.45;29.16
13456;BME280;6800;50.940;6.940;2022-09-17T08:13:17;100650.84;;;29.27;28.26
13456;BME280;6800;50.940;6.940;2022-09-17T08:17:17;100656.00;;;30.81;25.83
13456;BME280;6800;50.940;6.940;2022-09-17T08:21:18;100652.72;;;31.72;24.17
13456;BME280;6800;50.940;6.940;2022-09-17T08:25:18;100637.41;;;31.66;23.79
13456;BME280;6800;50.940;6.940;2022-09-17T08:29:20;100651.25;;;31.08;24.42
13456;BME280;6800;50.940;6.940;2022-09-17T08:33:20;100653.25;;;30.63;25.07
13456;BME280;6800;50.940;6.940;2022-09-17T08:37:20;100654.97;;;30.14;25.81
13456;BME280;6800;50.940;6.940;2022-09-17T08:41:30;100657.84;;;29.42;26.20
13456;BME280;6800;50.940;6.940;2022-09-17T08:45:33;100663.69;;;31.09;23.92
13456;BME280;6800;50.940;6.940;2022-09-17T08:49:53;100664.94;;;30.82;24.14
13456;BME280;6800;50.940;6.940;2022-09-17T09:03:08;100645.97;;;31.99;23.22
13456;BME280;6800;50.940;6.940;2022-09-17T09:07:20;100651.47;;;30.13;25.37
13456;BME280;6800;50.940;6.940;2022-09-17T09:11:23;100656.97;;;28.49;27.95
13456;BME280;6800;50.940;6.940;2022-09-17T09:15:35;100650.00;;;29.33;26.25
13456;BME280;6800;50.940;6.940;2022-09-17T09:19:42;100652.56;;;30.74;24.79
13456;BME280;6800;50.940;6.940;2022-09-17T09:28:04;100657.38;;;28.53;27.16
13456;BME280;6800;50.940;6.940;2022-09-17T09:36:32;100652.69;;;28.75;26.74
13456;BME280;6800;50.940;6.940;2022-09-17T09:40:40;100654.31;;;27.61;28.03
13456;BME280;6800;50.940;6.940;2022-09-17T09:44:43;100652.19;;;30.33;25.19
13456;BME280;6800;50.940;6.940;2022-09-17T09:53:24;100633.38;;;32.22;21.85
13456;BME280;6800;50.940;6.940;2022-09-17T09:57:48;100630.06;;;33.49;20.70
13456;BME280;6800;50.940;6.940;2022-09-17T10:01:51;100628.53;;;32.43;21.57
13456;BME280;6800;50.940;6.940;2022-09-17T10:05:58;100635.91;;;32.36;21.75
13456;BME280;6800;50.940;6.940;2022-09-17T10:10:08;100624.44;;;31.74;23.11
13456;BME280;6800;50.940;6.940;2022-09-17T10:14:24;100635.28;;;29.62;24.95
13456;BME280;6800;50.940;6.940;2022-09-17T10:18:24;100630.16;;;32.62;22.29
13456;BME280;6800;50.940;6.940;2022-09-17T10:22:29;100640.66;;;31.74;21.27
13456;BME280;6800;50.940;6.940;2022-09-17T10:26:32;100626.34;;;33.04;20.31
13456;BME280;6800;50.940;6.940;2022-09-17T10:30:34;100624.28;;;32.05;21.29
13456;BME280;6800;50.940;6.940;2022-09-17T10:34:35;100616.50;;;33.72;19.63
13456;BME280;6800;50.940;6.940;2022-09-17T10:38:40;100621.34;;;33.47;19.36
13456;BME280;6800;50.940;6.940;2022-09-17T10:42:40;100615.31;;;33.80;19.17
13456;BME280;6800;50.940;6.940;2022-09-17T10:46:41;100611.41;;;32.19;19.71
13456;BME280;6800;50.940;6.940;2022-09-17T10:50:47;100607.63;;;33.02;20.44
13456;BME280;6800;50.940;6.940;2022-09-17T10:59:37;100590.50;;;36.41;17.34
13456;BME280;6800;50.940;6.940;2022-09-17T11:04:08;100599.00;;;35.14;19.22
13456;BME280;6800;50.940;6.940;2022-09-17T11:08:19;100607.09;;;32.00;22.83
13456;BME280;6800;50.940;6.940;2022-09-17T11:12:36;100589.84;;;34.82;20.29
13456;BME280;6800;50.940;6.940;2022-09-17T11:16:56;100590.22;;;34.74;19.36
13456;BME280;6800;50.940;6.940;2022-09-17T11:34:02;100609.34;;;33.43;20.25
13456;BME280;6800;50.940;6.940;2022-09-17T11:38:39;100598.19;;;34.19;20.41
13456;BME280;6800;50.940;6.940;2022-09-17T11:43:16;100595.34;;;34.71;19.68
13456;BME280;6800;50.940;6.940;2022-09-17T11:47:24;100622.75;;;30.38;23.82
13456;BME280;6800;50.940;6.940;2022-09-17T11:51:34;100632.91;;;28.09;26.61
13456;BME280;6800;50.940;6.940;2022-09-17T11:55:43;100633.28;;;27.31;29.16
13456;BME280;6800;50.940;6.940;2022-09-17T11:59:55;100645.28;;;26.44;31.20
13456;BME280;6800;50.940;6.940;2022-09-17T12:04:21;100644.22;;;27.98;30.99
13456;BME280;6800;50.940;6.940;2022-09-17T12:09:41;100646.38;;;28.22;30.49
13456;BME280;6800;50.940;6.940;2022-09-17T12:17:24;100635.56;;;28.76;28.70
13456;BME280;6800;50.940;6.940;2022-09-17T12:21:39;100610.31;;;29.09;28.01
13456;BME280;6800;50.940;6.940;2022-09-17T12:25:55;100605.72;;;29.10;27.53
13456;BME280;6800;50.940;6.940;2022-09-17T12:30:18;100614.81;;;28.50;28.14
13456;BME280;6800;50.940;6.940;2022-09-17T12:39:05;100608.09;;;27.59;28.84
13456;BME280;6800;50.940;6.940;2022-09-17T12:47:42;100605.69;;;27.71;28.98
13456;BME280;6800;50.940;6.940;2022-09-17T12:52:02;100607.13;;;27.73;28.93
13456;BME280;6800;50.940;6.940;2022-09-17T12:56:33;100611.41;;;28.09;28.84
13456;BME280;6800;50.940;6.940;2022-09-17T13:00:41;100611.06;;;27.09;31.61
13456;BME280;6800;50.940;6.940;2022-09-17T13:17:42;100605.88;;;24.17;42.32
13456;BME280;6800;50.940;6.940;2022-09-17T13:22:05;100604.34;;;23.45;40.66
13456;BME280;6800;50.940;6.940;2022-09-17T13:26:13;100628.81;;;21.44;46.39
13456;BME280;6800;50.940;6.940;2022-09-17T13:30:17;100644.69;;;22.78;44.58
13456;BME280;6800;50.940;6.940;2022-09-17T13:39:02;100636.44;;;22.23;45.50
13456;BME280;6800;50.940;6.940;2022-09-17T13:47:49;100638.19;;;22.80;44.16
13456;BME280;6800;50.940;6.940;2022-09-17T13:51:43;100627.53;;;23.37;44.34
13456;BME280;6800;50.940;6.940;2022-09-17T13:55:55;100616.69;;;23.30;43.97
13456;BME280;6800;50.940;6.940;2022-09-17T14:16:50;100609.97;;;23.89;43.89
13456;BME280;6800;50.940;6.940;2022-09-17T14:20:50;100601.38;;;24.10;44.25
13456;BME280;6800;50.940;6.940;2022-09-17T14:37:23;100609.19;;;24.87;44.15
13456;BME280;6800;50.940;6.940;2022-09-17T14:41:29;100636.53;;;24.44;43.68
13456;BME280;6800;50.940;6.940;2022-09-17T14:45:36;100645.25;;;23.68;43.83
13456;BME280;6800;50.940;6.940;2022-09-17T14:49:40;100634.06;;;23.65;43.65
13456;BME280;6800;50.940;6.940;2022-09-17T14:53:40;100622.19;;;23.75;44.16
13456;BME280;6800;50.940;6.940;2022-09-17T14:57:42;100623.84;;;23.84;43.57
13456;BME280;6800;50.940;6.940;2022-09-17T15:01:46;100632.28;;;23.96;43.71
13456;BME280;6800;50.940;6.940;2022-09-17T15:05:47;100626.88;;;24.12;43.73
13456;BME280;6800;50.940;6.940;2022-09-17T15:09:49;100629.44;;;23.97;42.51
13456;BME280;6800;50.940;6.940;2022-09-17T15:13:52;100640.97;;;23.27;43.50
13456;BME280;6800;50.940;6.940;2022-09-17T15:17:53;100660.66;;;23.10;45.80
13456;BME280;6800;50.940;6.940;2022-09-17T15:21:56;100649.94;;;24.05;43.76
13456;BME280;6800;50.940;6.940;2022-09-17T15:25:57;100641.75;;;24.37;43.79
13456;BME280;6800;50.940;6.940;2022-09-17T15:30:15;100644.94;;;24.33;44.17
13456;BME280;6800;50.940;6.940;2022-09-17T16:09:49;100639.03;;;24.91;42.47
13456;BME280;6800;50.940;6.940;2022-09-17T16:13:53;100637.84;;;24.70;42.95
13456;BME280;6800;50.940;6.940;2022-09-17T16:17:54;100645.44;;;24.82;42.10
13456;BME280;6800;50.940;6.940;2022-09-17T16:21:55;100639.97;;;24.52;42.77
13456;BME280;6800;50.940;6.940;2022-09-17T16:25:56;100648.84;;;24.75;41.96
13456;BME280;6800;50.940;6.940;2022-09-17T16:30:01;100645.81;;;24.78;41.86
13456;BME280;6800;50.940;6.940;2022-09-17T16:34:03;100647.16;;;24.97;40.55
13456;BME280;6800;50.940;6.940;2022-09-17T16:38:04;100648.91;;;25.42;40.00
13456;BME280;6800;50.940;6.940;2022-09-17T16:42:04;100644.13;;;25.52;38.84
13456;BME280;6800;50.940;6.940;2022-09-17T16:46:07;100639.06;;;25.42;39.46
13456;BME280;6800;50.940;6.940;2022-09-17T16:50:12;100650.84;;;25.63;39.24
13456;BME280;6800;50.940;6.940;2022-09-17T16:54:13;100649.13;;;25.55;39.23
13456;BME280;6800;50.940;6.940;2022-09-17T16:58:13;100652.41;;;25.05;38.08
13456;BME280;6800;50.940;6.940;2022-09-17T17:02:13;100657.16;;;24.50;36.38
13456;BME280;6800;50.940;6.940;2022-09-17T17:06:15;100661.38;;;24.67;36.66
13456;BME280;6800;50.940;6.940;2022-09-17T17:10:16;100667.63;;;24.59;36.18
13456;BME280;6800;50.940;6.940;2022-09-17T17:14:17;100662.56;;;24.64;35.89
13456;BME280;6800;50.940;6.940;2022-09-17T17:18:21;100668.41;;;24.68;35.38
13456;BME280;6800;50.940;6.940;2022-09-17T17:22:22;100672.56;;;24.70;35.76
13456;BME280;6800;50.940;6.940;2022-09-17T17:26:22;100674.81;;;24.59;35.13
13456;BME280;6800;50.940;6.940;2022-09-17T17:30:23;100670.56;;;24.19;35.48
13456;BME280;6800;50.940;6.940;2022-09-17T17:34:23;100669.28;;;23.99;35.70
13456;BME280;6800;50.940;6.940;2022-09-17T17:38:23;100674.06;;;24.12;35.02
13456;BME280;6800;50.940;6.940;2022-09-17T17:42:24;100669.44;;;23.97;34.97
13456;BME280;6800;50.940;6.940;2022-09-17T17:46:24;100674.88;;;24.20;34.30
13456;BME280;6800;50.940;6.940;2022-09-17T17:50:24;100679.84;;;23.84;35.27
13456;BME280;6800;50.940;6.940;2022-09-17T17:54:25;100679.59;;;24.02;34.44
13456;BME280;6800;50.940;6.940;2022-09-17T17:58:27;100689.56;;;24.16;34.38
13456;BME280;6800;50.940;6.940;2022-09-17T18:02:27;100686.75;;;24.10;34.56
13456;BME280;6800;50.940;6.940;2022-09-17T18:06:28;100688.28;;;24.04;34.38
13456;BME280;6800;50.940;6.940;2022-09-17T18:10:28;100695.94;;;23.99;35.01
13456;BME280;6800;50.940;6.940;2022-09-17T18:14:28;100702.00;;;23.85;35.29
13456;BME280;6800;50.940;6.940;2022-09-17T18:18:34;100709.81;;;23.86;35.21
13456;BME280;6800;50.940;6.940;2022-09-17T18:22:35;100706.97;;;23.96;35.98
13456;BME280;6800;50.940;6.940;2022-09-17T18:26:36;100726.97;;;24.00;36.52
13456;BME280;6800;50.940;6.940;2022-09-17T18:30:36;100731.31;;;23.93;36.71
13456;BME280;6800;50.940;6.940;2022-09-17T18:34:36;100743.81;;;24.09;37.16
13456;BME280;6800;50.940;6.940;2022-09-17T18:38:37;100728.75;;;24.24;37.02
13456;BME280;6800;50.940;6.940;2022-09-17T18:42:38;100728.22;;;24.28;37.81
13456;BME280;6800;50.940;6.940;2022-09-17T18:46:38;100737.56;;;24.24;37.78
13456;BME280;6800;50.940;6.940;2022-09-17T18:50:40;100746.13;;;24.03;37.30
13456;BME280;6800;50.940;6.940;2022-09-17T18:54:41;100746.97;;;24.04;37.90
13456;BME280;6800;50.940;6.940;2022-09-17T18:58:44;100747.31;;;24.09;37.69
13456;BME280;6800;50.940;6.940;2022-09-17T19:02:47;100737.16;;;24.05;38.15
13456;BME280;6800;50.940;6.940;2022-09-17T19:06:48;100733.06;;;24.25;38.35
13456;BME280;6800;50.940;6.940;2022-09-17T19:10:49;100741.47;;;23.97;39.14
13456;BME280;6800;50.940;6.940;2022-09-17T19:14:50;100742.97;;;24.08;38.06
13456;BME280;6800;50.940;6.940;2022-09-17T19:23:29;100736.19;;;24.36;37.38
13456;BME280;6800;50.940;6.940;2022-09-17T19:27:30;100738.56;;;24.23;38.24
13456;BME280;6800;50.940;6.940;2022-09-17T19:31:30;100752.69;;;23.85;38.98
13456;BME280;6800;50.940;6.940;2022-09-17T19:35:30;100746.94;;;24.12;37.77
13456;BME280;6800;50.940;6.940;2022-09-17T19:39:31;100757.72;;;24.27;36.87
13456;BME280;6800;50.940;6.940;2022-09-17T19:43:31;100762.81;;;23.97;36.56
13456;BME280;6800;50.940;6.940;2022-09-17T19:47:32;100757.47;;;23.97;36.05
13456;BME280;6800;50.940;6.940;2022-09-17T19:51:32;100761.84;;;24.37;34.59
13456;BME280;6800;50.940;6.940;2022-09-17T19:55:32;100753.78;;;24.15;35.29
13456;BME280;6800;50.940;6.940;2022-09-17T19:59:33;100744.59;;;24.17;35.41
13456;BME280;6800;50.940;6.940;2022-09-17T20:03:33;100756.06;;;24.26;35.77
13456;BME280;6800;50.940;6.940;2022-09-17T20:07:33;100757.53;;;24.36;35.57
13456;BME280;6800;50.940;6.940;2022-09-17T20:11:37;100766.47;;;23.96;36.24
13456;BME280;6800;50.940;6.940;2022-09-17T20:15:38;100758.19;;;24.38;35.07
13456;BME280;6800;50.940;6.940;2022-09-17T20:19:38;100761.47;;;24.10;36.16
13456;BME280;6800;50.940;6.940;2022-09-17T20:23:38;100760.69;;;24.40;34.60
13456;BME280;6800;50.940;6.940;2022-09-17T20:27:39;100758.16;;;24.46;34.84
13456;BME280;6800;50.940;6.940;2022-09-17T20:31:39;100764.50;;;23.98;36.43
13456;BME280;6800;50.940;6.940;2022-09-17T20:35:39;100768.50;;;24.41;36.03
13456;BME280;6800;50.940;6.940;2022-09-17T20:39:39;100765.25;;;24.23;36.38
13456;BME280;6800;50.940;6.940;2022-09-17T20:43:42;100768.53;;;24.33;36.02
13456;BME280;6800;50.940;6.940;2022-09-17T20:47:43;100771.28;;;24.01;37.29
13456;BME280;6800;50.940;6.940;2022-09-17T20:51:43;100774.44;;;24.21;36.69
13456;BME280;6800;50.940;6.940;2022-09-17T20:55:43;100774.34;;;24.45;36.48
13456;BME280;6800;50.940;6.940;2022-09-17T20:59:43;100771.72;;;24.29;36.55
13456;BME280;6800;50.940;6.940;2022-09-17T21:03:52;100771.22;;;24.33;36.66
13456;BME280;6800;50.940;6.940;2022-09-17T21:07:53;100771.25;;;24.25;36.04
13456;BME280;6800;50.940;6.940;2022-09-17T21:11:53;100769.00;;;24.37;36.48
13456;BME280;6800;50.940;6.940;2022-09-17T21:15:57;100770.97;;;24.12;36.53
13456;BME280;6800;50.940;6.940;2022-09-17T21:19:58;100762.34;;;24.41;36.38
13456;BME280;6800;50.940;6.940;2022-09-17T21:23:59;100775.97;;;24.07;36.75
13456;BME280;6800;50.940;6.940;2022-09-17T21:28:00;100769.44;;;24.18;37.05
13456;BME280;6800;50.940;6.940;2022-09-17T21:32:00;100783.59;;;24.18;37.31
13456;BME280;6800;50.940;6.940;2022-09-17T21:36:03;100788.78;;;24.20;36.59
13456;BME280;6800;50.940;6.940;2022-09-17T21:40:04;100786.31;;;24.02;37.21
13456;BME280;6800;50.940;6.940;2022-09-17T21:44:06;100790.38;;;23.66;38.27
13456;BME280;6800;50.940;6.940;2022-09-17T21:48:06;100787.38;;;23.53;38.31
13456;BME280;6800;50.940;6.940;2022-09-17T21:52:07;100783.72;;;23.54;38.50
13456;BME280;6800;50.940;6.940;2022-09-17T21:56:10;100788.69;;;23.81;37.99
13456;BME280;6800;50.940;6.940;2022-09-17T22:00:11;100783.16;;;23.90;37.96
13456;BME280;6800;50.940;6.940;2022-09-17T22:04:14;100783.56;;;23.55;38.58
13456;BME280;6800;50.940;6.940;2022-09-17T22:08:15;100776.19;;;23.81;38.31
13456;BME280;6800;50.940;6.940;2022-09-17T22:12:15;100777.88;;;23.74;38.41
13456;BME280;6800;50.940;6.940;2022-09-17T22:16:15;100789.69;;;23.72;38.72
13456;BME280;6800;50.940;6.940;2022-09-17T22:20:15;100787.03;;;23.64;39.14
13456;BME280;6800;50.940;6.940;2022-09-17T22:24:17;100798.06;;;23.45;39.47
13456;BME280;6800;50.940;6.940;2022-09-17T22:28:17;100808.22;;;23.41;39.65
13456;BME280;6800;50.940;6.940;2022-09-17T22:32:18;100800.72;;;23.37;39.64
13456;BME280;6800;50.940;6.940;2022-09-17T22:36:20;100803.56;;;23.51;39.07
13456;BME280;6800;50.940;6.940;2022-09-17T22:40:21;100801.00;;;23.82;39.57
13456;BME280;6800;50.940;6.940;2022-09-17T22:44:21;100793.06;;;23.58;39.27
13456;BME280;6800;50.940;6.940;2022-09-17T22:48:22;100797.72;;;23.40;39.90
13456;BME280;6800;50.940;6.940;2022-09-17T22:52:22;100797.84;;;23.78;39.82
13456;BME280;6800;50.940;6.940;2022-09-17T22:56:23;100790.88;;;23.37;40.63
13456;BME280;6800;50.940;6.940;2022-09-17T23:00:24;100788.03;;;23.71;40.06
13456;BME280;6800;50.940;6.940;2022-09-17T23:04:24;100791.97;;;23.99;38.95
13456;BME280;6800;50.940;6.940;2022-09-17T23:08:26;100789.41;;;23.43;40.58
13456;BME280;6800;50.940;6.940;2022-09-17T23:12:26;100787.00;;;22.99;40.90
13456;BME280;6800;50.940;6.940;2022-09-17T23:16:27;100788.03;;;23.63;39.95
13456;BME280;6800;50.940;6.940;2022-09-17T23:20:27;100783.56;;;23.39;40.54
13456;BME280;6800;50.940;6.940;2022-09-17T23:24:27;100785.88;;;23.50;40.18
13456;BME280;6800;50.940;6.940;2022-09-17T23:28:28;100779.88;;;23.56;40.77
13456;BME280;6800;50.940;6.940;2022-09-17T23:32:28;100783.72;;;23.46;41.16
13456;BME280;6800;50.940;6.940;2022-09-17T23:36:34;100781.72;;;23.48;41.17
13456;BME280;6800;50.940;6.940;2022-09-17T23:40:35;100785.53;;;23.61;40.74
13456;BME280;6800;50.940;6.940;2022-09-17T23:44:35;100774.47;;;23.96;40.28
13456;BME280;6800;50.940;6.940;2022-09-17T23:48:36;100780.50;;;23.18;41.40
13456;BME280;6800;50.940;6.940;2022-09-17T23:52:36;100779.50;;;23.75;40.58
13456;BME280;6800;50.940;6.940;2022-09-17T23:56:37;100783.63;;;24.02;39.79
